AHS9923 LEBB-LEAS
Flight info
| Callsign | AHS9923 |
|---|---|
| Flight time | 1h 4m |
| Altitude | 2500 |
| Route | LEBB W // FOLLOW COASTLINE WESTBOUND // LEAS N |
| Aircraft | EC45/L-SDFG/S |
Departure
| Time | 2026-04-21 07:41 |
|---|---|
| Airport | Bilbao Airport (LEBB) |
Arrival
| Time | 2026-04-21 08:45 |
|---|---|
| Airport | Asturias Airport (LEAS) |
| Time | Latitude | Longitude | Altitude | Speed | Heading |
|---|---|---|---|---|---|
| 2026-04-21 07:35 | 43.30089 | -2.93105 | 128 ft | 0 kts | 276° |
| 2026-04-21 07:38 | 43.30087 | -2.93105 | 129 ft | 0 kts | 349° |
| 2026-04-21 07:38 | 43.30087 | -2.93109 | 128 ft | 0 kts | 87° |
| 2026-04-21 07:38 | 43.30088 | -2.93110 | 128 ft | 0 kts | 114° |
| 2026-04-21 07:39 | 43.30091 | -2.93095 | 140 ft | 8 kts | 29° |
| 2026-04-21 07:39 | 43.30151 | -2.93038 | 147 ft | 12 kts | 11° |
| 2026-04-21 07:39 | 43.30210 | -2.93020 | 148 ft | 8 kts | 17° |
| 2026-04-21 07:40 | 43.30263 | -2.92977 | 148 ft | 15 kts | 95° |
| 2026-04-21 07:40 | 43.30242 | -2.92668 | 221 ft | 56 kts | 100° |
| 2026-04-21 07:40 | 43.30163 | -2.92006 | 320 ft | 75 kts | 102° |
| 2026-04-21 07:40 | 43.29887 | -2.91420 | 550 ft | 75 kts | 155° |
| 2026-04-21 07:41 | 43.29317 | -2.91404 | 945 ft | 97 kts | 202° |
| 2026-04-21 07:41 | 43.28724 | -2.92029 | 1030 ft | 116 kts | 237° |
| 2026-04-21 07:41 | 43.28419 | -2.92978 | 1189 ft | 121 kts | 254° |
| 2026-04-21 07:41 | 43.28256 | -2.94123 | 1394 ft | 118 kts | 259° |
| 2026-04-21 07:42 | 43.28139 | -2.95245 | 1616 ft | 128 kts | 260° |
| 2026-04-21 07:42 | 43.28045 | -2.96517 | 1677 ft | 138 kts | 269° |
| 2026-04-21 07:42 | 43.28295 | -2.97790 | 1831 ft | 138 kts | 287° |
| 2026-04-21 07:42 | 43.28714 | -2.98970 | 1976 ft | 139 kts | 294° |
| 2026-04-21 07:43 | 43.29195 | -3.00142 | 2120 ft | 141 kts | 296° |
| 2026-04-21 07:43 | 43.29520 | -3.00919 | 2215 ft | 141 kts | 295° |
| 2026-04-21 07:43 | 43.30114 | -3.02352 | 2384 ft | 141 kts | 295° |
| 2026-04-21 07:43 | 43.30597 | -3.03521 | 2502 ft | 140 kts | 294° |
| 2026-04-21 07:44 | 43.30913 | -3.04303 | 2500 ft | 141 kts | 293° |
| 2026-04-21 07:44 | 43.31556 | -3.05863 | 2501 ft | 142 kts | 294° |
| 2026-04-21 07:44 | 43.31888 | -3.06662 | 2501 ft | 142 kts | 294° |
| 2026-04-21 07:44 | 43.32371 | -3.07827 | 2499 ft | 142 kts | 294° |
| 2026-04-21 07:45 | 43.32857 | -3.09001 | 2502 ft | 140 kts | 292° |
| 2026-04-21 07:45 | 43.33332 | -3.10177 | 2493 ft | 140 kts | 293° |
| 2026-04-21 07:45 | 43.33803 | -3.11336 | 2500 ft | 139 kts | 293° |
| 2026-04-21 07:45 | 43.34282 | -3.12511 | 2496 ft | 141 kts | 294° |
| 2026-04-21 07:46 | 43.34772 | -3.13690 | 2503 ft | 141 kts | 294° |
| 2026-04-21 07:46 | 43.35250 | -3.14860 | 2487 ft | 141 kts | 294° |
| 2026-04-21 07:46 | 43.35738 | -3.16035 | 2500 ft | 142 kts | 294° |
| 2026-04-21 07:46 | 43.36225 | -3.17213 | 2495 ft | 141 kts | 294° |
| 2026-04-21 07:47 | 43.36705 | -3.18375 | 2497 ft | 141 kts | 294° |
| 2026-04-21 07:47 | 43.37194 | -3.19559 | 2497 ft | 142 kts | 294° |
| 2026-04-21 07:47 | 43.37677 | -3.20733 | 2493 ft | 142 kts | 294° |
| 2026-04-21 07:47 | 43.38162 | -3.21913 | 2507 ft | 141 kts | 292° |
| 2026-04-21 07:48 | 43.38630 | -3.23087 | 2489 ft | 141 kts | 293° |
| 2026-04-21 07:48 | 43.39103 | -3.24243 | 2498 ft | 139 kts | 294° |
| 2026-04-21 07:48 | 43.39587 | -3.25415 | 2488 ft | 139 kts | 294° |
| 2026-04-21 07:48 | 43.40049 | -3.26612 | 2509 ft | 141 kts | 289° |
| 2026-04-21 07:49 | 43.40445 | -3.27818 | 2481 ft | 142 kts | 289° |
| 2026-04-21 07:49 | 43.40837 | -3.29070 | 2490 ft | 141 kts | 287° |
| 2026-04-21 07:49 | 43.41215 | -3.30316 | 2493 ft | 141 kts | 287° |
| 2026-04-21 07:49 | 43.41591 | -3.31560 | 2487 ft | 141 kts | 287° |
| 2026-04-21 07:50 | 43.41967 | -3.32805 | 2487 ft | 141 kts | 287° |
| 2026-04-21 07:50 | 43.42342 | -3.34040 | 2486 ft | 142 kts | 288° |
| 2026-04-21 07:50 | 43.42721 | -3.35293 | 2483 ft | 141 kts | 287° |
| 2026-04-21 07:50 | 43.43101 | -3.36550 | 2481 ft | 142 kts | 287° |
| 2026-04-21 07:51 | 43.43474 | -3.37788 | 2484 ft | 141 kts | 287° |
| 2026-04-21 07:51 | 43.43852 | -3.39041 | 2478 ft | 142 kts | 287° |
| 2026-04-21 07:51 | 43.44228 | -3.40292 | 2480 ft | 141 kts | 288° |
| 2026-04-21 07:51 | 43.44606 | -3.41545 | 2484 ft | 141 kts | 287° |
| 2026-04-21 07:52 | 43.45006 | -3.42762 | 2481 ft | 141 kts | 291° |
| 2026-04-21 07:52 | 43.45471 | -3.43944 | 2481 ft | 141 kts | 295° |
| 2026-04-21 07:52 | 43.45976 | -3.45113 | 2477 ft | 142 kts | 297° |
| 2026-04-21 07:52 | 43.46491 | -3.46278 | 2478 ft | 142 kts | 296° |
| 2026-04-21 07:53 | 43.47001 | -3.47430 | 2480 ft | 142 kts | 297° |
| 2026-04-21 07:53 | 43.47517 | -3.48596 | 2477 ft | 142 kts | 297° |
| 2026-04-21 07:53 | 43.48034 | -3.49753 | 2483 ft | 143 kts | 297° |
| 2026-04-21 07:53 | 43.48553 | -3.50919 | 2481 ft | 142 kts | 297° |
| 2026-04-21 07:54 | 43.49064 | -3.52080 | 2478 ft | 141 kts | 297° |
| 2026-04-21 07:54 | 43.49578 | -3.53247 | 2477 ft | 142 kts | 297° |
| 2026-04-21 07:54 | 43.50084 | -3.54398 | 2480 ft | 142 kts | 296° |
| 2026-04-21 07:54 | 43.50597 | -3.55565 | 2471 ft | 143 kts | 297° |
| 2026-04-21 07:55 | 43.51071 | -3.56771 | 2480 ft | 142 kts | 286° |
| 2026-04-21 07:55 | 43.51141 | -3.58083 | 2477 ft | 138 kts | 259° |
| 2026-04-21 07:55 | 43.50912 | -3.59353 | 2474 ft | 136 kts | 246° |
| 2026-04-21 07:55 | 43.50596 | -3.60584 | 2475 ft | 135 kts | 244° |
| 2026-04-21 07:56 | 43.50269 | -3.61803 | 2476 ft | 136 kts | 244° |
| 2026-04-21 07:56 | 43.49952 | -3.63014 | 2476 ft | 135 kts | 244° |
| 2026-04-21 07:56 | 43.49634 | -3.64237 | 2477 ft | 135 kts | 244° |
| 2026-04-21 07:56 | 43.49319 | -3.65454 | 2478 ft | 135 kts | 244° |
| 2026-04-21 07:57 | 43.49002 | -3.66669 | 2475 ft | 134 kts | 244° |
| 2026-04-21 07:57 | 43.48687 | -3.67875 | 2473 ft | 136 kts | 245° |
| 2026-04-21 07:57 | 43.48369 | -3.69094 | 2474 ft | 134 kts | 244° |
| 2026-04-21 07:57 | 43.48050 | -3.70312 | 2475 ft | 135 kts | 244° |
| 2026-04-21 07:58 | 43.47779 | -3.71553 | 2469 ft | 138 kts | 255° |
| 2026-04-21 07:58 | 43.47801 | -3.72865 | 2473 ft | 138 kts | 271° |
| 2026-04-21 07:58 | 43.48006 | -3.74169 | 2473 ft | 139 kts | 279° |
| 2026-04-21 07:58 | 43.48268 | -3.75447 | 2471 ft | 141 kts | 281° |
| 2026-04-21 07:59 | 43.48545 | -3.76741 | 2475 ft | 140 kts | 281° |
| 2026-04-21 07:59 | 43.48820 | -3.78029 | 2473 ft | 140 kts | 281° |
| 2026-04-21 07:59 | 43.49096 | -3.79320 | 2467 ft | 141 kts | 282° |
| 2026-04-21 07:59 | 43.49309 | -3.80633 | 2468 ft | 140 kts | 271° |
| 2026-04-21 08:00 | 43.49223 | -3.81926 | 2475 ft | 135 kts | 252° |
| 2026-04-21 08:00 | 43.48964 | -3.83182 | 2472 ft | 136 kts | 246° |
| 2026-04-21 08:00 | 43.48656 | -3.84390 | 2470 ft | 134 kts | 244° |
| 2026-04-21 08:00 | 43.48335 | -3.85618 | 2474 ft | 135 kts | 244° |
| 2026-04-21 08:01 | 43.48016 | -3.86835 | 2472 ft | 135 kts | 244° |
| 2026-04-21 08:01 | 43.47699 | -3.88046 | 2474 ft | 135 kts | 244° |
| 2026-04-21 08:01 | 43.47378 | -3.89270 | 2475 ft | 136 kts | 244° |
| 2026-04-21 08:02 | 43.46743 | -3.91696 | 2473 ft | 134 kts | 245° |
| 2026-04-21 08:02 | 43.46425 | -3.92912 | 2476 ft | 135 kts | 244° |
| 2026-04-21 08:02 | 43.46111 | -3.94103 | 2469 ft | 135 kts | 245° |
| 2026-04-21 08:02 | 43.45790 | -3.95327 | 2474 ft | 133 kts | 244° |
| 2026-04-21 08:03 | 43.45479 | -3.96517 | 2471 ft | 135 kts | 245° |
| 2026-04-21 08:03 | 43.45159 | -3.97731 | 2478 ft | 134 kts | 244° |
| 2026-04-21 08:03 | 43.44841 | -3.98943 | 2472 ft | 134 kts | 245° |
| 2026-04-21 08:03 | 43.44523 | -4.00152 | 2471 ft | 134 kts | 245° |
| 2026-04-21 08:04 | 43.44209 | -4.01347 | 2475 ft | 134 kts | 245° |
| 2026-04-21 08:04 | 43.43892 | -4.02559 | 2472 ft | 134 kts | 245° |
| 2026-04-21 08:04 | 43.43639 | -4.03804 | 2476 ft | 135 kts | 250° |
| 2026-04-21 08:04 | 43.43446 | -4.05075 | 2473 ft | 135 kts | 253° |
| 2026-04-21 08:05 | 43.43282 | -4.06346 | 2474 ft | 135 kts | 254° |
| 2026-04-21 08:05 | 43.43123 | -4.07633 | 2474 ft | 137 kts | 256° |
| 2026-04-21 08:05 | 43.42966 | -4.08918 | 2474 ft | 135 kts | 255° |
| 2026-04-21 08:05 | 43.42811 | -4.10191 | 2473 ft | 136 kts | 256° |
| 2026-04-21 08:06 | 43.42656 | -4.11463 | 2479 ft | 136 kts | 255° |
| 2026-04-21 08:06 | 43.42500 | -4.12741 | 2479 ft | 136 kts | 255° |
| 2026-04-21 08:06 | 43.42343 | -4.14023 | 2479 ft | 135 kts | 255° |
| 2026-04-21 08:06 | 43.42186 | -4.15303 | 2478 ft | 135 kts | 255° |
| 2026-04-21 08:07 | 43.42031 | -4.16569 | 2477 ft | 135 kts | 255° |
| 2026-04-21 08:07 | 43.41874 | -4.17848 | 2477 ft | 135 kts | 255° |
| 2026-04-21 08:07 | 43.41718 | -4.19129 | 2480 ft | 135 kts | 255° |
| 2026-04-21 08:07 | 43.41562 | -4.20389 | 2479 ft | 135 kts | 256° |
| 2026-04-21 08:08 | 43.41404 | -4.21669 | 2478 ft | 135 kts | 255° |
| 2026-04-21 08:08 | 43.41246 | -4.22953 | 2478 ft | 136 kts | 255° |
| 2026-04-21 08:08 | 43.41090 | -4.24220 | 2483 ft | 135 kts | 255° |
| 2026-04-21 08:08 | 43.40932 | -4.25500 | 2478 ft | 135 kts | 255° |
| 2026-04-21 08:09 | 43.40775 | -4.26781 | 2482 ft | 135 kts | 255° |
| 2026-04-21 08:09 | 43.40616 | -4.28061 | 2480 ft | 135 kts | 255° |
| 2026-04-21 08:09 | 43.40460 | -4.29325 | 2482 ft | 135 kts | 255° |
| 2026-04-21 08:09 | 43.40301 | -4.30605 | 2480 ft | 135 kts | 255° |
| 2026-04-21 08:10 | 43.40144 | -4.31875 | 2481 ft | 135 kts | 255° |
| 2026-04-21 08:10 | 43.39986 | -4.33148 | 2479 ft | 135 kts | 255° |
| 2026-04-21 08:10 | 43.39828 | -4.34422 | 2481 ft | 135 kts | 256° |
| 2026-04-21 08:10 | 43.39670 | -4.35692 | 2478 ft | 135 kts | 256° |
| 2026-04-21 08:11 | 43.39513 | -4.36964 | 2480 ft | 134 kts | 255° |
| 2026-04-21 08:11 | 43.39382 | -4.38229 | 2482 ft | 136 kts | 261° |
| 2026-04-21 08:11 | 43.39374 | -4.39537 | 2478 ft | 137 kts | 267° |
| 2026-04-21 08:11 | 43.39436 | -4.40830 | 2481 ft | 138 kts | 270° |
| 2026-04-21 08:12 | 43.39520 | -4.42131 | 2482 ft | 136 kts | 271° |
| 2026-04-21 08:12 | 43.39607 | -4.43435 | 2491 ft | 137 kts | 271° |
| 2026-04-21 08:12 | 43.39697 | -4.44740 | 2498 ft | 136 kts | 271° |
| 2026-04-21 08:12 | 43.39785 | -4.46044 | 2500 ft | 136 kts | 271° |
| 2026-04-21 08:13 | 43.39869 | -4.47331 | 2499 ft | 137 kts | 271° |
| 2026-04-21 08:13 | 43.39953 | -4.48630 | 2501 ft | 136 kts | 271° |
| 2026-04-21 08:13 | 43.40038 | -4.49934 | 2499 ft | 137 kts | 271° |
| 2026-04-21 08:13 | 43.40123 | -4.51243 | 2502 ft | 137 kts | 270° |
| 2026-04-21 08:14 | 43.40207 | -4.52549 | 2504 ft | 137 kts | 271° |
| 2026-04-21 08:14 | 43.40291 | -4.53849 | 2503 ft | 137 kts | 270° |
| 2026-04-21 08:14 | 43.40375 | -4.55158 | 2499 ft | 137 kts | 271° |
| 2026-04-21 08:14 | 43.40458 | -4.56450 | 2501 ft | 137 kts | 271° |
| 2026-04-21 08:15 | 43.40543 | -4.57764 | 2495 ft | 136 kts | 271° |
| 2026-04-21 08:15 | 43.40626 | -4.59058 | 2498 ft | 137 kts | 271° |
| 2026-04-21 08:15 | 43.40710 | -4.60363 | 2500 ft | 137 kts | 271° |
| 2026-04-21 08:15 | 43.40793 | -4.61667 | 2499 ft | 137 kts | 271° |
| 2026-04-21 08:16 | 43.40875 | -4.62956 | 2499 ft | 137 kts | 271° |
| 2026-04-21 08:16 | 43.40958 | -4.64265 | 2504 ft | 137 kts | 271° |
| 2026-04-21 08:16 | 43.41041 | -4.65572 | 2498 ft | 137 kts | 271° |
| 2026-04-21 08:16 | 43.41124 | -4.66875 | 2500 ft | 137 kts | 271° |
| 2026-04-21 08:17 | 43.41207 | -4.68186 | 2496 ft | 137 kts | 271° |
| 2026-04-21 08:17 | 43.41289 | -4.69493 | 2498 ft | 137 kts | 271° |
| 2026-04-21 08:17 | 43.41371 | -4.70786 | 2499 ft | 137 kts | 271° |
| 2026-04-21 08:17 | 43.41453 | -4.72093 | 2498 ft | 137 kts | 271° |
| 2026-04-21 08:18 | 43.41536 | -4.73394 | 2497 ft | 138 kts | 271° |
| 2026-04-21 08:18 | 43.41622 | -4.74632 | 2500 ft | 137 kts | 273° |
| 2026-04-21 08:18 | 43.41766 | -4.75912 | 2498 ft | 137 kts | 276° |
| 2026-04-21 08:18 | 43.41949 | -4.77199 | 2498 ft | 137 kts | 278° |
| 2026-04-21 08:19 | 43.42147 | -4.78486 | 2495 ft | 137 kts | 278° |
| 2026-04-21 08:19 | 43.42348 | -4.79773 | 2499 ft | 138 kts | 278° |
| 2026-04-21 08:19 | 43.42544 | -4.81044 | 2499 ft | 137 kts | 278° |
| 2026-04-21 08:19 | 43.42745 | -4.82340 | 2501 ft | 137 kts | 278° |
| 2026-04-21 08:20 | 43.42940 | -4.83608 | 2500 ft | 137 kts | 277° |
| 2026-04-21 08:20 | 43.43140 | -4.84890 | 2504 ft | 137 kts | 278° |
| 2026-04-21 08:20 | 43.43334 | -4.86167 | 2494 ft | 136 kts | 278° |
| 2026-04-21 08:20 | 43.43531 | -4.87447 | 2495 ft | 137 kts | 278° |
| 2026-04-21 08:21 | 43.43728 | -4.88721 | 2495 ft | 137 kts | 278° |
| 2026-04-21 08:21 | 43.43930 | -4.90019 | 2505 ft | 137 kts | 277° |
| 2026-04-21 08:21 | 43.44122 | -4.91306 | 2494 ft | 137 kts | 278° |
| 2026-04-21 08:21 | 43.44319 | -4.92572 | 2497 ft | 137 kts | 278° |
| 2026-04-21 08:22 | 43.44514 | -4.93855 | 2498 ft | 136 kts | 277° |
| 2026-04-21 08:22 | 43.44711 | -4.95140 | 2494 ft | 136 kts | 277° |
| 2026-04-21 08:22 | 43.44908 | -4.96427 | 2497 ft | 136 kts | 277° |
| 2026-04-21 08:22 | 43.45099 | -4.97688 | 2492 ft | 137 kts | 278° |
| 2026-04-21 08:23 | 43.45295 | -4.98975 | 2496 ft | 136 kts | 278° |
| 2026-04-21 08:23 | 43.45491 | -5.00255 | 2492 ft | 137 kts | 277° |
| 2026-04-21 08:23 | 43.45685 | -5.01529 | 2494 ft | 138 kts | 278° |
| 2026-04-21 08:23 | 43.45872 | -5.02759 | 2496 ft | 137 kts | 278° |
| 2026-04-21 08:24 | 43.46066 | -5.04038 | 2492 ft | 138 kts | 278° |
| 2026-04-21 08:24 | 43.46264 | -5.05336 | 2497 ft | 138 kts | 278° |
| 2026-04-21 08:24 | 43.46513 | -5.06584 | 2498 ft | 137 kts | 282° |
| 2026-04-21 08:24 | 43.46847 | -5.07832 | 2505 ft | 137 kts | 286° |
| 2026-04-21 08:25 | 43.47208 | -5.09044 | 2506 ft | 137 kts | 287° |
| 2026-04-21 08:25 | 43.47568 | -5.10241 | 2472 ft | 138 kts | 289° |
| 2026-04-21 08:25 | 43.47955 | -5.11450 | 2489 ft | 138 kts | 289° |
| 2026-04-21 08:25 | 43.48339 | -5.12672 | 2500 ft | 138 kts | 289° |
| 2026-04-21 08:26 | 43.48715 | -5.13877 | 2500 ft | 138 kts | 289° |
| 2026-04-21 08:26 | 43.49092 | -5.15095 | 2501 ft | 137 kts | 289° |
| 2026-04-21 08:26 | 43.49461 | -5.16291 | 2500 ft | 138 kts | 289° |
| 2026-04-21 08:26 | 43.49835 | -5.17516 | 2492 ft | 138 kts | 289° |
| 2026-04-21 08:27 | 43.50209 | -5.18734 | 2498 ft | 138 kts | 288° |
| 2026-04-21 08:27 | 43.50577 | -5.19934 | 2493 ft | 138 kts | 289° |
| 2026-04-21 08:27 | 43.50953 | -5.21160 | 2499 ft | 138 kts | 288° |
| 2026-04-21 08:27 | 43.51321 | -5.22361 | 2493 ft | 137 kts | 289° |
| 2026-04-21 08:28 | 43.51696 | -5.23588 | 2495 ft | 138 kts | 288° |
| 2026-04-21 08:28 | 43.52071 | -5.24813 | 2493 ft | 138 kts | 289° |
| 2026-04-21 08:28 | 43.52442 | -5.26025 | 2491 ft | 138 kts | 288° |
| 2026-04-21 08:28 | 43.52816 | -5.27251 | 2485 ft | 139 kts | 289° |
| 2026-04-21 08:29 | 43.53188 | -5.28470 | 2487 ft | 139 kts | 288° |
| 2026-04-21 08:29 | 43.53565 | -5.29700 | 2489 ft | 139 kts | 288° |
| 2026-04-21 08:29 | 43.53940 | -5.30927 | 2489 ft | 138 kts | 288° |
| 2026-04-21 08:29 | 43.54187 | -5.31738 | 2490 ft | 138 kts | 288° |
| 2026-04-21 08:30 | 43.54680 | -5.33357 | 2487 ft | 138 kts | 288° |
| 2026-04-21 08:30 | 43.55058 | -5.34595 | 2486 ft | 139 kts | 288° |
| 2026-04-21 08:30 | 43.55305 | -5.35407 | 2486 ft | 138 kts | 287° |
| 2026-04-21 08:30 | 43.55802 | -5.37036 | 2485 ft | 139 kts | 288° |
| 2026-04-21 08:31 | 43.56042 | -5.37851 | 2487 ft | 138 kts | 286° |
| 2026-04-21 08:31 | 43.56265 | -5.39133 | 2484 ft | 137 kts | 274° |
| 2026-04-21 08:31 | 43.56354 | -5.40435 | 2486 ft | 136 kts | 268° |
| 2026-04-21 08:31 | 43.56392 | -5.41738 | 2490 ft | 135 kts | 266° |
| 2026-04-21 08:32 | 43.56413 | -5.43031 | 2483 ft | 137 kts | 266° |
| 2026-04-21 08:32 | 43.56440 | -5.44343 | 2488 ft | 137 kts | 266° |
| 2026-04-21 08:32 | 43.56467 | -5.45653 | 2478 ft | 136 kts | 266° |
| 2026-04-21 08:32 | 43.56492 | -5.46956 | 2479 ft | 136 kts | 267° |
| 2026-04-21 08:33 | 43.56518 | -5.48248 | 2480 ft | 137 kts | 266° |
| 2026-04-21 08:33 | 43.56543 | -5.49552 | 2480 ft | 135 kts | 266° |
| 2026-04-21 08:33 | 43.56568 | -5.50855 | 2478 ft | 136 kts | 266° |
| 2026-04-21 08:33 | 43.56593 | -5.52162 | 2480 ft | 135 kts | 266° |
| 2026-04-21 08:34 | 43.56618 | -5.53450 | 2481 ft | 136 kts | 266° |
| 2026-04-21 08:34 | 43.56644 | -5.54757 | 2481 ft | 135 kts | 266° |
| 2026-04-21 08:34 | 43.56669 | -5.56063 | 2480 ft | 137 kts | 266° |
| 2026-04-21 08:34 | 43.56692 | -5.57368 | 2473 ft | 136 kts | 266° |
| 2026-04-21 08:35 | 43.56717 | -5.58668 | 2478 ft | 136 kts | 266° |
| 2026-04-21 08:35 | 43.56741 | -5.59985 | 2473 ft | 138 kts | 266° |
| 2026-04-21 08:35 | 43.56857 | -5.61279 | 2470 ft | 140 kts | 279° |
| 2026-04-21 08:35 | 43.57209 | -5.62530 | 2475 ft | 140 kts | 290° |
| 2026-04-21 08:36 | 43.57674 | -5.63721 | 2472 ft | 140 kts | 295° |
| 2026-04-21 08:36 | 43.58170 | -5.64884 | 2421 ft | 138 kts | 295° |
| 2026-04-21 08:36 | 43.58651 | -5.66023 | 2283 ft | 140 kts | 296° |
| 2026-04-21 08:36 | 43.59141 | -5.67186 | 2159 ft | 139 kts | 296° |
| 2026-04-21 08:37 | 43.59639 | -5.68357 | 2019 ft | 143 kts | 297° |
| 2026-04-21 08:37 | 43.60142 | -5.69538 | 1899 ft | 141 kts | 297° |
| 2026-04-21 08:37 | 43.60634 | -5.70693 | 1776 ft | 141 kts | 297° |
| 2026-04-21 08:37 | 43.61137 | -5.71873 | 1651 ft | 142 kts | 297° |
| 2026-04-21 08:38 | 43.61629 | -5.73028 | 1523 ft | 140 kts | 297° |
| 2026-04-21 08:38 | 43.62135 | -5.74202 | 1502 ft | 143 kts | 299° |
| 2026-04-21 08:38 | 43.62637 | -5.75365 | 1497 ft | 142 kts | 300° |
| 2026-04-21 08:38 | 43.63153 | -5.76556 | 1496 ft | 143 kts | 300° |
| 2026-04-21 08:39 | 43.63665 | -5.77744 | 1495 ft | 144 kts | 300° |
| 2026-04-21 08:39 | 43.64165 | -5.78923 | 1496 ft | 144 kts | 300° |
| 2026-04-21 08:39 | 43.64673 | -5.80117 | 1497 ft | 144 kts | 300° |
| 2026-04-21 08:39 | 43.65175 | -5.81300 | 1493 ft | 144 kts | 300° |
| 2026-04-21 08:40 | 43.65683 | -5.82496 | 1494 ft | 144 kts | 300° |
| 2026-04-21 08:40 | 43.66189 | -5.83691 | 1496 ft | 144 kts | 299° |
| 2026-04-21 08:40 | 43.66444 | -5.85027 | 1492 ft | 144 kts | 269° |
| 2026-04-21 08:40 | 43.66210 | -5.86322 | 1496 ft | 139 kts | 238° |
| 2026-04-21 08:41 | 43.65577 | -5.87300 | 1430 ft | 134 kts | 212° |
| 2026-04-21 08:41 | 43.64991 | -5.87982 | 1326 ft | 134 kts | 213° |
| 2026-04-21 08:41 | 43.64323 | -5.88869 | 1201 ft | 135 kts | 219° |
| 2026-04-21 08:41 | 43.63705 | -5.89805 | 1073 ft | 135 kts | 223° |
| 2026-04-21 08:42 | 43.63094 | -5.90799 | 993 ft | 133 kts | 225° |
| 2026-04-21 08:42 | 43.62500 | -5.91795 | 1001 ft | 135 kts | 224° |
| 2026-04-21 08:42 | 43.61903 | -5.92802 | 1000 ft | 135 kts | 225° |
| 2026-04-21 08:42 | 43.61319 | -5.93784 | 996 ft | 132 kts | 225° |
| 2026-04-21 08:43 | 43.60727 | -5.94779 | 1003 ft | 135 kts | 225° |
| 2026-04-21 08:43 | 43.60144 | -5.95734 | 1002 ft | 128 kts | 224° |
| 2026-04-21 08:43 | 43.59580 | -5.96669 | 1003 ft | 125 kts | 223° |
| 2026-04-21 08:43 | 43.59030 | -5.97588 | 999 ft | 124 kts | 225° |
| 2026-04-21 08:44 | 43.58480 | -5.98503 | 1000 ft | 123 kts | 224° |
| 2026-04-21 08:44 | 43.57937 | -5.99403 | 988 ft | 122 kts | 224° |
| 2026-04-21 08:44 | 43.57397 | -6.00076 | 852 ft | 84 kts | 200° |
| 2026-04-21 08:44 | 43.56967 | -6.00316 | 773 ft | 56 kts | 190° |
| 2026-04-21 08:45 | 43.56670 | -6.00485 | 686 ft | 40 kts | 189° |
| 2026-04-21 08:45 | 43.56410 | -6.00709 | 709 ft | 51 kts | 217° |
| 2026-04-21 08:45 | 43.56095 | -6.01026 | 580 ft | 52 kts | 237° |
| 2026-04-21 08:45 | 43.55960 | -6.01377 | 628 ft | 39 kts | 271° |
| 2026-04-21 08:46 | 43.55988 | -6.01842 | 614 ft | 53 kts | 294° |
| 2026-04-21 08:46 | 43.56090 | -6.02355 | 482 ft | 53 kts | 290° |
| 2026-04-21 08:46 | 43.56194 | -6.02750 | 460 ft | 34 kts | 285° |
| 2026-04-21 08:46 | 43.56263 | -6.02994 | 438 ft | 21 kts | 289° |
| 2026-04-21 08:47 | 43.56273 | -6.03124 | 437 ft | 11 kts | 245° |
| 2026-04-21 08:47 | 43.56207 | -6.03184 | 431 ft | 16 kts | 195° |
| 2026-04-21 08:47 | 43.56096 | -6.03227 | 437 ft | 17 kts | 172° |
| 2026-04-21 08:47 | 43.56023 | -6.03113 | 452 ft | 24 kts | 107° |
| 2026-04-21 08:48 | 43.55985 | -6.02938 | 451 ft | 11 kts | 117° |
| 2026-04-21 08:48 | 43.55939 | -6.02826 | 431 ft | 11 kts | 117° |
| 2026-04-21 08:48 | 43.55919 | -6.02782 | 428 ft | 7 kts | 113° |
| 2026-04-21 08:48 | 43.55906 | -6.02746 | 422 ft | 1 kts | 119° |